createdAt,value
2023-01-18T00:01:12.404Z,94491.19
2023-01-18T00:03:39.825Z,94478.63
2023-01-18T00:06:07.864Z,94418.53
2023-01-18T00:08:36.290Z,94481.41
2023-01-18T00:11:04.092Z,94474.75
2023-01-18T00:13:30.791Z,94340.75
2023-01-18T00:16:05.887Z,94391.84
2023-01-18T00:18:33.114Z,94459.34
2023-01-18T00:21:04.187Z,94450.88
2023-01-18T00:23:30.966Z,94439.00
2023-01-18T00:26:06.512Z,94475.75
2023-01-18T00:28:33.594Z,94479.91
2023-01-18T00:31:00.358Z,94419.75
2023-01-18T00:33:28.307Z,94459.53
2023-01-18T00:35:59.798Z,94472.34
2023-01-18T00:38:27.001Z,94477.34
2023-01-18T00:40:53.721Z,94484.13
2023-01-18T00:43:39.274Z,94474.75
2023-01-18T00:46:11.214Z,94367.25
2023-01-18T00:48:39.810Z,94472.97
2023-01-18T00:51:08.998Z,94462.31
2023-01-18T00:53:36.603Z,94473.94
2023-01-18T00:56:03.491Z,94478.94
2023-01-18T00:58:30.581Z,94458.91
2023-01-18T01:00:57.435Z,94477.34
2023-01-18T01:03:24.142Z,94469.56
2023-01-18T01:06:09.427Z,94428.69
2023-01-18T01:08:36.134Z,94455.13
2023-01-18T01:11:13.078Z,94475.19
2023-01-18T01:13:58.284Z,94475.97
2023-01-18T01:16:43.650Z,94332.22
2023-01-18T01:19:28.924Z,94482.56
2023-01-18T01:22:14.324Z,94334.56
2023-01-18T01:24:59.641Z,94486.53
2023-01-18T01:27:26.555Z,94473.09
2023-01-18T01:29:53.299Z,94422.84
2023-01-18T01:32:19.986Z,94476.94
2023-01-18T01:34:46.758Z,94292.41
2023-01-18T01:37:13.435Z,94451.38
2023-01-18T01:39:40.111Z,94459.97
2023-01-18T01:42:10.309Z,94481.78
2023-01-18T01:44:42.100Z,94331.41
2023-01-18T01:47:25.747Z,94446.78
2023-01-18T01:49:56.472Z,94304.50
2023-01-18T01:52:28.705Z,94489.59
2023-01-18T01:55:12.099Z,94485.22
2023-01-18T01:57:44.750Z,94482.28
2023-01-18T02:00:14.499Z,94481.03
2023-01-18T02:02:44.255Z,94468.47
2023-01-18T02:05:13.728Z,94495.47
2023-01-18T02:07:40.599Z,94362.53
2023-01-18T02:10:08.328Z,94472.34
2023-01-18T02:12:38.940Z,94456.91
2023-01-18T02:15:06.677Z,94479.91
2023-01-18T02:18:11.733Z,94368.19
2023-01-18T02:20:44.401Z,94481.13
2023-01-18T02:23:35.108Z,94482.94
2023-01-18T02:26:26.768Z,94489.53
2023-01-18T02:28:59.331Z,94476.72
2023-01-18T02:31:28.805Z,94429.50
2023-01-18T02:34:13.674Z,94478.50
2023-01-18T02:37:06.673Z,94487.75
2023-01-18T02:39:51.983Z,94487.13
2023-01-18T02:42:40.008Z,94466.91
2023-01-18T02:45:37.370Z,94468.50
2023-01-18T02:48:04.550Z,94483.72
2023-01-18T02:50:31.470Z,94487.31
2023-01-18T02:52:58.407Z,94475.66
2023-01-18T02:55:27.968Z,94397.94
2023-01-18T02:58:09.824Z,94256.88
2023-01-18T03:00:39.424Z,94463.13
2023-01-18T03:03:13.854Z,94480.97
2023-01-18T03:05:43.362Z,94485.97
2023-01-18T03:08:32.775Z,94490.34
2023-01-18T03:11:03.123Z,94352.13
2023-01-18T03:13:36.404Z,94330.31
2023-01-18T03:16:12.076Z,94490.53
2023-01-18T03:19:03.188Z,94491.91
2023-01-18T03:21:32.522Z,94493.72
2023-01-18T03:24:04.555Z,94490.16
2023-01-18T03:26:35.676Z,94410.94
2023-01-18T03:29:23.021Z,94500.69
2023-01-18T03:32:10.418Z,94501.50
2023-01-18T03:35:10.564Z,94507.47
2023-01-18T03:37:40.759Z,94473.19
2023-01-18T03:40:12.243Z,94500.47
2023-01-18T03:42:50.996Z,94500.47
2023-01-18T03:45:27.864Z,94510.81
2023-01-18T03:47:54.794Z,94516.44
2023-01-18T03:50:41.975Z,94433.06
2023-01-18T03:53:14.746Z,94499.97
2023-01-18T03:55:47.178Z,94495.31
2023-01-18T03:58:19.354Z,94485.94
2023-01-18T04:00:46.426Z,94338.03
2023-01-18T04:03:13.391Z,94384.88
2023-01-18T04:05:40.242Z,94527.94
2023-01-18T04:08:06.963Z,94537.16
2023-01-18T04:10:33.777Z,94535.38
2023-01-18T04:13:00.964Z,94472.47
2023-01-18T04:15:28.002Z,94392.13
2023-01-18T04:17:55.972Z,94527.41
2023-01-18T04:20:23.860Z,94527.22
2023-01-18T04:22:54.633Z,94503.91
2023-01-18T04:25:21.903Z,94508.72
2023-01-18T04:27:48.692Z,94522.34
2023-01-18T04:30:15.781Z,94547.56
2023-01-18T04:32:42.928Z,94513.47
2023-01-18T04:35:10.242Z,94504.53
2023-01-18T04:37:38.295Z,94554.34
2023-01-18T04:40:06.719Z,94553.38
2023-01-18T04:42:33.501Z,94487.75
2023-01-18T04:45:00.695Z,94573.31
2023-01-18T04:47:31.244Z,94405.19
2023-01-18T04:49:58.041Z,94397.91
2023-01-18T04:52:26.763Z,94556.16
2023-01-18T04:54:53.566Z,94563.94
2023-01-18T04:57:20.353Z,94563.75
2023-01-18T04:59:47.010Z,94562.94
2023-01-18T05:02:15.471Z,94533.47
2023-01-18T05:04:43.722Z,94571.91
2023-01-18T05:07:11.258Z,94570.09
2023-01-18T05:09:38.039Z,94563.78
2023-01-18T05:12:05.014Z,94415.97
2023-01-18T05:14:31.682Z,94454.47
2023-01-18T05:16:58.413Z,94548.25
2023-01-18T05:19:30.677Z,94555.25
2023-01-18T05:21:57.414Z,94568.88
2023-01-18T05:24:24.360Z,94413.34
2023-01-18T05:26:51.141Z,94428.53
2023-01-18T05:29:18.075Z,94533.50
2023-01-18T05:31:44.986Z,94569.16
2023-01-18T05:34:11.968Z,94577.75
2023-01-18T05:36:38.701Z,94589.63
2023-01-18T05:39:05.736Z,94596.53
2023-01-18T05:41:32.421Z,94325.28
2023-01-18T05:43:59.120Z,94596.03
2023-01-18T05:46:28.785Z,94600.13
2023-01-18T05:48:58.940Z,94609.91
2023-01-18T05:51:25.677Z,94615.22
2023-01-18T05:53:52.338Z,94467.00
2023-01-18T05:56:19.034Z,94626.41
2023-01-18T05:58:46.349Z,94555.13
2023-01-18T06:01:13.824Z,94636.22
2023-01-18T06:03:41.010Z,94640.41
2023-01-18T06:06:08.822Z,94455.16
2023-01-18T06:08:35.768Z,94677.47
2023-01-18T06:11:02.739Z,94643.25
2023-01-18T06:13:33.585Z,94646.84
2023-01-18T06:16:01.039Z,94653.25
2023-01-18T06:18:30.011Z,94661.03
2023-01-18T06:21:00.978Z,94650.66
2023-01-18T06:23:28.689Z,94660.25
2023-01-18T06:25:56.226Z,94641.75
2023-01-18T06:28:22.943Z,94664.44
2023-01-18T06:30:52.894Z,94672.00
2023-01-18T06:33:19.567Z,94467.16
2023-01-18T06:35:46.274Z,94622.22
2023-01-18T06:38:14.087Z,94675.59
2023-01-18T06:40:41.060Z,94677.38
2023-01-18T06:43:10.288Z,94512.63
2023-01-18T06:45:37.063Z,94660.50
2023-01-18T06:48:04.692Z,94634.63
2023-01-18T06:50:31.471Z,94548.09
2023-01-18T06:52:58.443Z,94623.03
2023-01-18T06:55:25.458Z,94554.72
2023-01-18T06:57:52.128Z,94629.34
2023-01-18T07:00:19.298Z,94644.25
2023-01-18T07:02:45.959Z,94688.00
2023-01-18T07:05:12.715Z,94521.19
2023-01-18T07:07:39.410Z,94703.09
2023-01-18T07:10:06.551Z,94685.25
2023-01-18T07:12:33.307Z,94692.66
2023-01-18T07:15:04.860Z,94710.16
2023-01-18T07:17:36.567Z,94698.09
2023-01-18T07:20:03.460Z,94563.19
2023-01-18T07:22:30.145Z,94687.47
2023-01-18T07:24:57.135Z,94582.91
2023-01-18T07:27:23.791Z,94684.00
2023-01-18T07:29:50.461Z,94739.00
2023-01-18T07:32:17.285Z,94729.25
2023-01-18T07:34:43.969Z,94658.13
2023-01-18T07:37:10.656Z,94744.44
2023-01-18T07:39:37.343Z,94728.38
2023-01-18T07:42:04.939Z,94723.97
2023-01-18T07:44:31.731Z,94751.66
2023-01-18T07:46:58.635Z,94758.47
2023-01-18T07:49:25.335Z,94758.28
2023-01-18T07:51:52.006Z,94620.44
2023-01-18T07:54:19.172Z,94764.69
2023-01-18T07:56:45.884Z,94773.72
2023-01-18T07:59:12.578Z,94774.97
2023-01-18T08:01:39.339Z,94752.72
2023-01-18T08:04:06.102Z,94767.28
2023-01-18T08:06:32.788Z,94770.50
2023-01-18T08:08:59.735Z,94633.31
2023-01-18T08:11:26.497Z,94761.84
2023-01-18T08:13:53.235Z,94786.50
2023-01-18T08:16:20.132Z,94727.94
2023-01-18T08:18:49.725Z,94794.09
2023-01-18T08:21:16.569Z,94778.63
2023-01-18T08:23:43.313Z,94756.31
2023-01-18T08:26:10.800Z,94807.13
2023-01-18T08:28:37.571Z,94782.47
2023-01-18T08:31:10.622Z,94802.75
2023-01-18T08:33:48.831Z,94810.16
2023-01-18T08:36:22.139Z,94805.78
2023-01-18T08:38:50.784Z,94610.91
2023-01-18T08:41:18.995Z,94814.16
2023-01-18T08:43:50.717Z,94828.13
2023-01-18T08:46:17.475Z,94825.34
2023-01-18T08:48:44.187Z,94749.34
2023-01-18T08:51:11.469Z,94804.91
2023-01-18T08:53:38.330Z,94813.38
2023-01-18T08:56:06.790Z,94832.25
2023-01-18T08:58:33.898Z,94833.84
2023-01-18T09:01:05.210Z,94843.25
2023-01-18T09:03:31.985Z,94744.19
2023-01-18T09:06:03.611Z,94841.88
2023-01-18T09:08:31.640Z,94836.31
2023-01-18T09:11:06.633Z,94847.50
2023-01-18T09:13:34.701Z,94857.50
2023-01-18T09:16:07.736Z,94828.38
2023-01-18T09:18:35.238Z,94865.56
2023-01-18T09:21:11.665Z,94863.22
2023-01-18T09:23:40.123Z,94849.19
2023-01-18T09:26:08.966Z,94870.34
2023-01-18T09:28:36.292Z,94806.38
2023-01-18T09:31:05.434Z,94618.03
2023-01-18T09:33:37.413Z,94880.72
2023-01-18T09:36:07.960Z,94890.72
2023-01-18T09:38:36.127Z,94745.28
2023-01-18T09:41:06.652Z,94730.22
2023-01-18T09:43:43.034Z,94887.19
2023-01-18T09:46:21.608Z,94849.47
2023-01-18T09:49:00.670Z,94857.09
2023-01-18T09:51:33.507Z,94892.72
2023-01-18T09:54:18.520Z,94839.09
2023-01-18T09:56:50.039Z,94899.41
2023-01-18T09:59:25.473Z,94864.44
2023-01-18T10:01:54.357Z,94900.69
2023-01-18T10:04:36.287Z,94888.53
2023-01-18T10:07:08.586Z,94903.44
2023-01-18T10:09:46.184Z,94919.28
2023-01-18T10:12:31.760Z,94919.09
2023-01-18T10:15:31.887Z,94925.69
2023-01-18T10:18:00.704Z,94926.69
2023-01-18T10:20:34.004Z,94888.97
2023-01-18T10:23:16.600Z,94924.09
2023-01-18T10:25:55.400Z,94801.09
2023-01-18T10:28:59.706Z,94936.72
2023-01-18T10:31:48.548Z,94897.56
2023-01-18T10:34:24.153Z,94939.50
2023-01-18T10:37:04.472Z,94930.41
2023-01-18T10:39:38.200Z,94821.19
2023-01-18T10:42:17.535Z,94959.84
2023-01-18T10:44:45.101Z,94933.38
2023-01-18T10:47:12.153Z,94921.66
2023-01-18T10:49:42.028Z,94958.69
2023-01-18T10:52:24.540Z,94963.69
2023-01-18T10:55:07.403Z,94967.69
2023-01-18T10:57:43.420Z,94947.84
2023-01-18T11:00:34.737Z,94976.41
2023-01-18T11:03:05.208Z,94975.63
2023-01-18T11:05:40.033Z,94980.47
2023-01-18T11:08:32.914Z,94982.25
2023-01-18T11:11:03.135Z,94964.00
2023-01-18T11:13:39.024Z,94981.69
2023-01-18T11:16:20.901Z,94908.31
2023-01-18T11:18:59.854Z,94967.28
2023-01-18T11:21:33.223Z,94986.00
2023-01-18T11:24:07.762Z,95000.00
2023-01-18T11:26:34.690Z,95005.75
2023-01-18T11:29:12.758Z,95006.81
2023-01-18T11:31:50.421Z,94985.53
2023-01-18T11:34:28.752Z,95016.03
2023-01-18T11:36:57.033Z,95012.00
2023-01-18T11:39:28.470Z,95011.38
2023-01-18T11:42:14.170Z,95023.34
2023-01-18T11:44:48.467Z,95017.34
2023-01-18T11:47:23.408Z,94990.09
2023-01-18T11:50:22.492Z,95026.56
2023-01-18T11:52:51.125Z,95027.47
2023-01-18T11:55:38.339Z,95033.16
2023-01-18T11:58:16.961Z,95032.63
2023-01-18T12:00:56.755Z,95039.03
2023-01-18T12:03:45.349Z,95042.22
2023-01-18T12:06:44.068Z,95025.59
2023-01-18T12:09:54.133Z,95056.03
2023-01-18T12:12:42.546Z,95070.28
2023-01-18T12:15:41.954Z,95068.16
2023-01-18T12:18:42.464Z,95072.47
2023-01-18T12:21:24.014Z,95079.91
2023-01-18T12:23:56.399Z,95074.19
2023-01-18T12:26:46.746Z,95077.34
2023-01-18T12:29:20.389Z,95089.25
2023-01-18T12:32:14.194Z,94976.56
2023-01-18T12:34:42.132Z,95100.16
2023-01-18T12:37:23.972Z,95102.47
2023-01-18T12:39:54.118Z,95057.50
2023-01-18T12:42:52.320Z,95112.72
2023-01-18T12:45:41.665Z,95119.44
2023-01-18T12:48:13.004Z,95121.41
2023-01-18T12:50:42.508Z,95129.56
2023-01-18T12:53:18.327Z,95107.47
2023-01-18T12:55:49.512Z,95067.59
2023-01-18T12:58:22.642Z,94909.16
2023-01-18T13:00:54.662Z,95104.78
2023-01-18T13:03:28.366Z,95130.59
2023-01-18T13:05:59.322Z,95089.94
2023-01-18T13:08:44.867Z,95159.44
2023-01-18T13:11:32.604Z,95170.16
2023-01-18T13:14:11.381Z,95168.41
2023-01-18T13:16:42.249Z,95029.69
2023-01-18T13:19:13.820Z,95156.00
2023-01-18T13:21:52.222Z,95171.16
2023-01-18T13:24:36.505Z,94955.47
2023-01-18T13:27:11.730Z,95185.09
2023-01-18T13:29:39.462Z,95173.19
2023-01-18T13:32:33.210Z,95203.41
2023-01-18T13:35:22.632Z,95203.22
2023-01-18T13:37:56.429Z,95137.09
2023-01-18T13:40:43.763Z,95224.31
2023-01-18T13:43:30.521Z,95224.44
2023-01-18T13:46:08.133Z,95229.69
2023-01-18T13:48:57.668Z,95236.00
2023-01-18T13:51:39.580Z,95236.66
2023-01-18T13:54:29.404Z,95248.97
2023-01-18T13:57:04.365Z,95257.41
2023-01-18T13:59:38.220Z,95256.59
2023-01-18T14:02:20.123Z,95261.00
2023-01-18T14:05:08.985Z,95260.53
2023-01-18T14:07:48.167Z,95275.44
2023-01-18T14:10:37.097Z,95294.25
2023-01-18T14:13:06.622Z,95051.72
2023-01-18T14:15:42.150Z,95294.06
2023-01-18T14:18:33.035Z,95295.72
2023-01-18T14:21:06.235Z,95309.34
2023-01-18T14:24:00.151Z,95317.94
2023-01-18T14:26:31.873Z,95319.84
2023-01-18T14:29:11.234Z,95323.72
2023-01-18T14:31:42.706Z,95188.38
2023-01-18T14:34:27.978Z,95336.50
2023-01-18T14:36:55.279Z,95216.66
2023-01-18T14:39:22.757Z,95210.69
2023-01-18T14:41:57.933Z,95351.41
2023-01-18T14:44:28.840Z,95347.84
2023-01-18T14:46:58.143Z,95354.19
2023-01-18T14:49:31.568Z,95221.34
2023-01-18T14:51:59.474Z,95315.25
2023-01-18T14:54:26.285Z,95336.47
2023-01-18T14:57:01.830Z,95377.53
2023-01-18T14:59:31.158Z,95364.78
2023-01-18T15:02:03.914Z,95383.56
2023-01-18T15:04:39.355Z,95279.28
2023-01-18T15:07:10.595Z,95324.41
2023-01-18T15:09:39.756Z,95387.81
2023-01-18T15:12:10.562Z,95146.47
2023-01-18T15:14:43.871Z,95310.81
2023-01-18T15:17:21.455Z,95390.41
2023-01-18T15:20:06.955Z,95345.94
2023-01-18T15:22:37.840Z,95383.31
2023-01-18T15:25:07.479Z,95411.50
2023-01-18T15:27:37.275Z,95350.03
2023-01-18T15:30:12.864Z,95420.91
2023-01-18T15:32:39.781Z,95433.38
2023-01-18T15:35:09.685Z,95184.75
2023-01-18T15:37:40.052Z,95440.00
2023-01-18T15:40:12.592Z,95446.16
2023-01-18T15:42:46.599Z,95452.31
2023-01-18T15:45:20.728Z,95459.44
2023-01-18T15:47:52.006Z,95459.13
2023-01-18T15:50:20.745Z,95459.66
2023-01-18T15:53:02.692Z,95461.91
2023-01-18T15:55:50.161Z,95470.34
2023-01-18T15:58:32.457Z,95476.31
2023-01-18T16:01:02.740Z,95477.13
2023-01-18T16:03:34.834Z,95487.00
2023-01-18T16:06:11.909Z,95489.59
2023-01-18T16:09:12.912Z,95311.31
2023-01-18T16:11:49.909Z,95506.75
2023-01-18T16:14:28.644Z,95514.03
2023-01-18T16:16:58.071Z,95515.66
2023-01-18T16:19:29.463Z,95522.28
2023-01-18T16:22:26.980Z,95370.69
2023-01-18T16:25:15.171Z,95537.34
2023-01-18T16:27:51.417Z,95550.47
2023-01-18T16:30:37.689Z,95541.25
2023-01-18T16:33:15.900Z,95534.59
2023-01-18T16:35:43.095Z,95552.56
2023-01-18T16:38:12.232Z,95405.09
2023-01-18T16:40:41.617Z,95557.25
2023-01-18T16:43:18.274Z,95558.56
2023-01-18T16:45:47.751Z,95447.63
2023-01-18T16:48:17.172Z,95431.44
2023-01-18T16:50:45.025Z,95540.97
2023-01-18T16:53:12.420Z,95551.84
2023-01-18T16:55:39.797Z,95586.34
2023-01-18T16:58:06.768Z,95564.63
2023-01-18T17:01:00.226Z,95582.78
2023-01-18T17:03:28.901Z,95413.09
2023-01-18T17:05:55.733Z,95537.81
2023-01-18T17:08:22.814Z,95410.03
2023-01-18T17:10:51.327Z,95602.66
2023-01-18T17:13:18.298Z,95462.53
2023-01-18T17:15:45.679Z,95460.44
2023-01-18T17:18:25.793Z,95605.38
2023-01-18T17:20:53.783Z,95408.38
2023-01-18T17:23:21.327Z,95482.31
2023-01-18T17:25:48.410Z,95601.09
2023-01-18T17:28:17.911Z,95628.28
2023-01-18T17:30:47.432Z,95440.50
2023-01-18T17:33:20.497Z,95629.28
2023-01-18T17:35:49.030Z,95521.53
2023-01-18T17:38:23.309Z,95551.97
2023-01-18T17:40:51.327Z,95645.72
2023-01-18T17:43:28.439Z,95587.59
2023-01-18T17:46:01.896Z,95660.97
2023-01-18T17:48:29.060Z,95662.59
2023-01-18T17:50:55.941Z,95625.88
2023-01-18T17:53:22.745Z,95665.59
2023-01-18T17:55:50.051Z,95654.25
2023-01-18T17:58:16.810Z,95655.44
2023-01-18T18:00:43.478Z,95676.50
2023-01-18T18:03:10.404Z,95706.19
2023-01-18T18:05:37.208Z,95707.00
2023-01-18T18:08:04.139Z,95709.91
2023-01-18T18:10:31.183Z,95706.88
2023-01-18T18:12:58.421Z,95727.03
2023-01-18T18:15:25.437Z,95690.13
2023-01-18T18:17:52.323Z,95733.00
2023-01-18T18:20:20.791Z,95590.06
2023-01-18T18:22:48.783Z,95626.56
2023-01-18T18:25:15.526Z,95656.97
2023-01-18T18:27:46.461Z,95655.06
2023-01-18T18:30:14.320Z,95744.72
2023-01-18T18:32:40.972Z,95733.19
2023-01-18T18:35:23.043Z,95627.75
2023-01-18T18:37:51.788Z,95715.19
2023-01-18T18:40:19.361Z,95723.97
2023-01-18T18:42:59.925Z,95673.75
2023-01-18T18:45:28.528Z,95773.41
2023-01-18T18:47:55.407Z,95648.59
2023-01-18T18:50:22.185Z,95633.22
2023-01-18T18:52:48.822Z,95727.88
2023-01-18T18:55:16.039Z,95802.38
2023-01-18T18:57:42.709Z,95691.72
2023-01-18T19:00:10.130Z,95642.53
2023-01-18T19:02:37.802Z,95622.97
2023-01-18T19:05:05.925Z,95809.63
2023-01-18T19:07:34.850Z,95698.88
2023-01-18T19:10:01.592Z,95691.47
2023-01-18T19:12:28.376Z,95841.28
2023-01-18T19:14:55.133Z,95809.78
2023-01-18T19:17:30.217Z,95734.56
2023-01-18T19:19:57.793Z,95856.50
2023-01-18T19:22:24.525Z,95604.75
2023-01-18T19:24:51.166Z,95832.03
2023-01-18T19:27:17.853Z,95789.38
2023-01-18T19:29:44.579Z,95835.72
2023-01-18T19:32:11.301Z,95874.13
2023-01-18T19:34:38.655Z,95858.28
2023-01-18T19:37:08.233Z,95885.06
2023-01-18T19:39:35.124Z,95744.13
2023-01-18T19:42:02.662Z,95900.28
2023-01-18T19:44:29.920Z,95860.50
2023-01-18T19:46:57.139Z,95901.34
2023-01-18T19:49:27.858Z,95905.91
2023-01-18T19:51:54.940Z,95920.50
2023-01-18T19:54:22.289Z,95919.53
2023-01-18T19:56:49.657Z,95921.53
2023-01-18T19:59:16.657Z,95931.13
2023-01-18T20:01:43.750Z,95915.69
2023-01-18T20:04:12.922Z,95790.94
2023-01-18T20:06:40.096Z,95947.41
2023-01-18T20:09:18.423Z,95941.44
2023-01-18T20:11:46.087Z,95905.75
2023-01-18T20:14:13.171Z,95832.63
2023-01-18T20:16:40.063Z,95804.09
2023-01-18T20:19:06.853Z,95860.50
2023-01-18T20:21:33.606Z,95958.91
2023-01-18T20:24:01.041Z,95812.59
2023-01-18T20:26:36.460Z,95925.47
2023-01-18T20:29:08.345Z,95961.28
2023-01-18T20:31:36.539Z,95858.38
2023-01-18T20:34:04.239Z,95967.69
2023-01-18T20:36:31.098Z,95960.75
2023-01-18T20:38:57.770Z,95905.97
2023-01-18T20:41:24.566Z,95950.19
2023-01-18T20:43:51.316Z,95970.13
2023-01-18T20:46:18.194Z,95958.59
2023-01-18T20:48:44.896Z,95973.53
2023-01-18T20:51:11.676Z,95981.47
2023-01-18T20:53:38.338Z,95982.25
2023-01-18T20:56:23.465Z,95976.28
2023-01-18T20:58:54.808Z,95974.78
2023-01-18T21:01:21.741Z,95982.03
2023-01-18T21:03:55.469Z,95873.91
2023-01-18T21:06:22.311Z,95919.09
2023-01-18T21:08:52.097Z,95973.97
2023-01-18T21:11:22.826Z,95992.56
2023-01-18T21:13:51.269Z,95959.16
2023-01-18T21:16:18.295Z,95965.91
2023-01-18T21:18:45.462Z,95941.50
2023-01-18T21:21:12.981Z,95992.56
2023-01-18T21:23:40.083Z,96017.28
2023-01-18T21:26:08.675Z,96010.38
2023-01-18T21:28:35.972Z,96023.28
2023-01-18T21:31:02.835Z,96033.03
2023-01-18T21:33:29.613Z,96025.78
2023-01-18T21:36:02.847Z,96033.72
2023-01-18T21:38:30.016Z,96033.03
2023-01-18T21:40:56.662Z,96037.56
2023-01-18T21:43:42.120Z,96025.66
2023-01-18T21:46:11.077Z,96050.13
2023-01-18T21:48:37.959Z,96037.81
2023-01-18T21:51:24.386Z,95985.97
2023-01-18T21:54:09.715Z,95911.81
2023-01-18T21:56:37.145Z,96065.28
2023-01-18T21:59:03.971Z,95992.66
2023-01-18T22:01:38.633Z,96003.47
2023-01-18T22:04:26.504Z,96045.97
2023-01-18T22:06:54.067Z,96088.97
2023-01-18T22:09:21.226Z,96094.28
2023-01-18T22:11:48.130Z,96093.75
2023-01-18T22:14:15.045Z,96056.25
2023-01-18T22:16:41.797Z,95991.09
2023-01-18T22:19:11.021Z,96106.31
2023-01-18T22:21:37.752Z,96108.22
2023-01-18T22:24:05.064Z,96054.06
2023-01-18T22:26:31.805Z,96117.91
2023-01-18T22:29:01.537Z,96085.56
2023-01-18T22:31:29.035Z,95978.25
2023-01-18T22:33:56.627Z,96109.13
2023-01-18T22:36:24.060Z,96133.47
2023-01-18T22:38:50.968Z,96100.69
2023-01-18T22:41:20.607Z,96129.50
2023-01-18T22:43:47.537Z,96098.78
2023-01-18T22:46:16.394Z,96093.75
2023-01-18T22:48:44.207Z,96139.84
2023-01-18T22:51:19.897Z,96140.44
2023-01-18T22:53:46.574Z,96058.84
2023-01-18T22:56:19.458Z,96018.94
2023-01-18T22:58:47.045Z,96145.75
2023-01-18T23:01:29.273Z,96149.53
2023-01-18T23:03:58.154Z,96147.63
2023-01-18T23:06:24.991Z,96113.91
2023-01-18T23:08:52.124Z,96146.38
2023-01-18T23:11:27.164Z,96077.91
2023-01-18T23:14:19.049Z,96146.53
2023-01-18T23:17:06.329Z,96134.44
2023-01-18T23:19:33.542Z,96149.41
2023-01-18T23:22:00.307Z,96029.13
2023-01-18T23:24:27.377Z,96136.72
2023-01-18T23:26:54.095Z,96147.31
2023-01-18T23:29:20.810Z,95978.72
2023-01-18T23:31:47.522Z,95944.47
2023-01-18T23:34:14.441Z,96143.72
2023-01-18T23:36:41.235Z,95986.63
2023-01-18T23:39:26.419Z,95892.63
2023-01-18T23:42:11.761Z,96133.00
2023-01-18T23:44:56.976Z,95977.53
2023-01-18T23:47:42.253Z,95958.09
2023-01-18T23:50:28.020Z,95989.22
2023-01-18T23:53:13.246Z,96127.91
2023-01-18T23:55:41.432Z,95959.28
2023-01-18T23:58:08.199Z,96140.00
